sensor_id;sensor_type;location;lat;lon;timestamp;temperature;humidity
42803;DHT22;28447;48.682;9.022;2023-03-31T04:00:56;9.00;99.90
42803;DHT22;28447;48.682;9.022;2023-03-31T04:03:23;8.90;99.90
42803;DHT22;28447;48.682;9.022;2023-03-31T04:05:49;8.80;99.90
42803;DHT22;28447;48.682;9.022;2023-03-31T04:08:15;8.80;99.90
42803;DHT22;28447;48.682;9.022;2023-03-31T04:10:45;8.70;99.90
42803;DHT22;28447;48.682;9.022;2023-03-31T04:13:16;8.70;99.90
42803;DHT22;28447;48.682;9.022;2023-03-31T04:15:42;8.70;99.90
42803;DHT22;28447;48.682;9.022;2023-03-31T04:18:09;8.70;99.90
42803;DHT22;28447;48.682;9.022;2023-03-31T04:20:36;8.70;99.90
42803;DHT22;28447;48.682;9.022;2023-03-31T04:23:03;8.70;99.90
42803;DHT22;28447;48.682;9.022;2023-03-31T04:25:30;8.70;99.90
42803;DHT22;28447;48.682;9.022;2023-03-31T04:27:56;8.80;99.90
42803;DHT22;28447;48.682;9.022;2023-03-31T04:30:24;8.80;99.90
42803;DHT22;28447;48.682;9.022;2023-03-31T04:32:58;8.80;99.90
42803;DHT22;28447;48.682;9.022;2023-03-31T04:35:26;8.90;99.90
42803;DHT22;28447;48.682;9.022;2023-03-31T04:37:53;8.90;99.90
42803;DHT22;28447;48.682;9.022;2023-03-31T04:40:23;8.90;99.90
42803;DHT22;28447;48.682;9.022;2023-03-31T04:42:50;9.00;99.90
42803;DHT22;28447;48.682;9.022;2023-03-31T04:45:16;9.00;99.90
42803;DHT22;28447;48.682;9.022;2023-03-31T04:47:43;9.00;99.90
42803;DHT22;28447;48.682;9.022;2023-03-31T04:50:09;9.10;99.90
42803;DHT22;28447;48.682;9.022;2023-03-31T04:52:36;9.20;99.90
42803;DHT22;28447;48.682;9.022;2023-03-31T04:55:03;9.20;99.90
42803;DHT22;28447;48.682;9.022;2023-03-31T04:57:29;9.10;99.90
42803;DHT22;28447;48.682;9.022;2023-03-31T04:59:55;9.20;99.90
42803;DHT22;28447;48.682;9.022;2023-03-31T05:02:20;9.30;99.90
42803;DHT22;28447;48.682;9.022;2023-03-31T05:04:49;9.30;99.90
42803;DHT22;28447;48.682;9.022;2023-03-31T05:07:15;9.30;99.90
42803;DHT22;28447;48.682;9.022;2023-03-31T05:09:41;9.30;99.90
42803;DHT22;28447;48.682;9.022;2023-03-31T05:12:08;9.30;99.90
42803;DHT22;28447;48.682;9.022;2023-03-31T05:14:34;9.20;99.90
42803;DHT22;28447;48.682;9.022;2023-03-31T05:17:00;9.10;99.90
42803;DHT22;28447;48.682;9.022;2023-03-31T05:19:25;9.00;99.90
42803;DHT22;28447;48.682;9.022;2023-03-31T05:21:51;8.90;99.90
42803;DHT22;28447;48.682;9.022;2023-03-31T05:24:17;8.90;99.90
42803;DHT22;28447;48.682;9.022;2023-03-31T05:26:42;8.90;99.90
42803;DHT22;28447;48.682;9.022;2023-03-31T05:29:14;8.90;99.90
42803;DHT22;28447;48.682;9.022;2023-03-31T05:31:41;8.80;99.90
42803;DHT22;28447;48.682;9.022;2023-03-31T05:34:07;8.90;99.90
42803;DHT22;28447;48.682;9.022;2023-03-31T05:36:34;9.00;99.90
42803;DHT22;28447;48.682;9.022;2023-03-31T05:39:05;9.10;99.90
42803;DHT22;28447;48.682;9.022;2023-03-31T05:41:32;8.90;99.90
42803;DHT22;28447;48.682;9.022;2023-03-31T05:43:58;8.80;99.90
42803;DHT22;28447;48.682;9.022;2023-03-31T05:46:27;8.80;99.90
42803;DHT22;28447;48.682;9.022;2023-03-31T05:48:53;8.80;99.90
42803;DHT22;28447;48.682;9.022;2023-03-31T05:51:21;8.80;99.90
42803;DHT22;28447;48.682;9.022;2023-03-31T05:53:47;8.70;99.90
42803;DHT22;28447;48.682;9.022;2023-03-31T05:56:13;8.80;99.90
42803;DHT22;28447;48.682;9.022;2023-03-31T05:58:40;8.90;99.90
42803;DHT22;28447;48.682;9.022;2023-03-31T06:01:09;8.90;99.90
42803;DHT22;28447;48.682;9.022;2023-03-31T06:03:37;8.90;99.90
42803;DHT22;28447;48.682;9.022;2023-03-31T06:06:04;9.00;99.90
42803;DHT22;28447;48.682;9.022;2023-03-31T06:08:31;8.90;99.90
42803;DHT22;28447;48.682;9.022;2023-03-31T06:10:57;8.90;99.90
42803;DHT22;28447;48.682;9.022;2023-03-31T06:13:22;9.00;99.90
42803;DHT22;28447;48.682;9.022;2023-03-31T06:15:56;9.00;99.90
42803;DHT22;28447;48.682;9.022;2023-03-31T06:18:22;9.10;99.90
42803;DHT22;28447;48.682;9.022;2023-03-31T06:20:48;9.20;99.90
42803;DHT22;28447;48.682;9.022;2023-03-31T06:23:13;9.20;99.90
42803;DHT22;28447;48.682;9.022;2023-03-31T06:25:41;9.20;99.90
42803;DHT22;28447;48.682;9.022;2023-03-31T06:28:07;9.10;99.90
42803;DHT22;28447;48.682;9.022;2023-03-31T06:30:33;9.10;99.90
42803;DHT22;28447;48.682;9.022;2023-03-31T06:33:00;9.10;99.90
42803;DHT22;28447;48.682;9.022;2023-03-31T06:35:26;9.10;99.90
42803;DHT22;28447;48.682;9.022;2023-03-31T06:37:52;8.90;99.90
42803;DHT22;28447;48.682;9.022;2023-03-31T06:40:18;9.00;99.90
42803;DHT22;28447;48.682;9.022;2023-03-31T06:42:44;8.90;99.90
42803;DHT22;28447;48.682;9.022;2023-03-31T06:45:10;8.90;99.90
42803;DHT22;28447;48.682;9.022;2023-03-31T06:47:35;8.90;99.90
42803;DHT22;28447;48.682;9.022;2023-03-31T06:50:07;8.80;99.90
42803;DHT22;28447;48.682;9.022;2023-03-31T06:52:35;8.70;99.90
42803;DHT22;28447;48.682;9.022;2023-03-31T06:55:01;8.70;99.90
42803;DHT22;28447;48.682;9.022;2023-03-31T06:57:28;8.70;99.90
42803;DHT22;28447;48.682;9.022;2023-03-31T07:00:00;8.80;99.90
42803;DHT22;28447;48.682;9.022;2023-03-31T07:02:26;8.90;99.90
42803;DHT22;28447;48.682;9.022;2023-03-31T07:04:51;8.80;99.90
42803;DHT22;28447;48.682;9.022;2023-03-31T07:07:17;8.90;99.90
42803;DHT22;28447;48.682;9.022;2023-03-31T07:09:44;8.80;99.90
42803;DHT22;28447;48.682;9.022;2023-03-31T07:12:10;8.80;99.90
42803;DHT22;28447;48.682;9.022;2023-03-31T07:14:35;8.90;99.90
42803;DHT22;28447;48.682;9.022;2023-03-31T07:17:02;8.90;99.90
42803;DHT22;28447;48.682;9.022;2023-03-31T07:19:28;8.90;99.90
42803;DHT22;28447;48.682;9.022;2023-03-31T07:21:54;8.90;99.90
42803;DHT22;28447;48.682;9.022;2023-03-31T07:24:21;8.90;99.90
42803;DHT22;28447;48.682;9.022;2023-03-31T07:26:46;8.90;99.90
42803;DHT22;28447;48.682;9.022;2023-03-31T07:29:12;8.90;99.90
42803;DHT22;28447;48.682;9.022;2023-03-31T07:31:38;8.90;99.90
42803;DHT22;28447;48.682;9.022;2023-03-31T07:34:04;9.00;99.90
42803;DHT22;28447;48.682;9.022;2023-03-31T07:36:30;9.10;99.90
42803;DHT22;28447;48.682;9.022;2023-03-31T07:38:56;9.30;99.90
42803;DHT22;28447;48.682;9.022;2023-03-31T07:41:22;9.40;99.90
42803;DHT22;28447;48.682;9.022;2023-03-31T07:43:50;9.40;99.90
42803;DHT22;28447;48.682;9.022;2023-03-31T07:46:24;9.30;99.90
42803;DHT22;28447;48.682;9.022;2023-03-31T07:48:52;9.50;99.90
42803;DHT22;28447;48.682;9.022;2023-03-31T07:51:22;9.60;99.90
42803;DHT22;28447;48.682;9.022;2023-03-31T07:53:50;9.50;99.90
42803;DHT22;28447;48.682;9.022;2023-03-31T07:56:21;9.50;99.90
42803;DHT22;28447;48.682;9.022;2023-03-31T07:58:47;9.70;99.90
42803;DHT22;28447;48.682;9.022;2023-03-31T08:01:18;9.70;99.90
42803;DHT22;28447;48.682;9.022;2023-03-31T08:03:46;9.90;99.90
42803;DHT22;28447;48.682;9.022;2023-03-31T08:06:23;10.10;99.90
42803;DHT22;28447;48.682;9.022;2023-03-31T08:08:49;10.10;99.90
42803;DHT22;28447;48.682;9.022;2023-03-31T08:11:16;10.70;99.90
42803;DHT22;28447;48.682;9.022;2023-03-31T08:13:42;10.80;99.90
42803;DHT22;28447;48.682;9.022;2023-03-31T08:16:07;11.00;99.90
42803;DHT22;28447;48.682;9.022;2023-03-31T08:18:33;10.90;99.90
42803;DHT22;28447;48.682;9.022;2023-03-31T08:20:59;11.00;99.90
42803;DHT22;28447;48.682;9.022;2023-03-31T08:23:25;11.30;99.90
42803;DHT22;28447;48.682;9.022;2023-03-31T08:25:51;11.40;99.90
42803;DHT22;28447;48.682;9.022;2023-03-31T08:28:16;11.30;99.90
42803;DHT22;28447;48.682;9.022;2023-03-31T08:30:42;11.70;99.90
42803;DHT22;28447;48.682;9.022;2023-03-31T08:33:10;11.60;99.90
42803;DHT22;28447;48.682;9.022;2023-03-31T08:35:37;12.00;99.90
42803;DHT22;28447;48.682;9.022;2023-03-31T08:38:03;12.40;99.90
42803;DHT22;28447;48.682;9.022;2023-03-31T08:40:31;12.30;99.90
42803;DHT22;28447;48.682;9.022;2023-03-31T08:43:03;12.30;99.90
42803;DHT22;28447;48.682;9.022;2023-03-31T08:45:50;12.60;99.90
42803;DHT22;28447;48.682;9.022;2023-03-31T08:50:58;12.60;99.90
42803;DHT22;28447;48.682;9.022;2023-03-31T08:53:28;12.50;99.90
42803;DHT22;28447;48.682;9.022;2023-03-31T08:55:57;12.90;99.90
42803;DHT22;28447;48.682;9.022;2023-03-31T08:58:38;13.10;99.90
42803;DHT22;28447;48.682;9.022;2023-03-31T09:05:09;12.80;99.90
42803;DHT22;28447;48.682;9.022;2023-03-31T09:09:56;12.80;99.90
42803;DHT22;28447;48.682;9.022;2023-03-31T09:12:59;12.90;99.90
42803;DHT22;28447;48.682;9.022;2023-03-31T09:16:12;12.70;99.90
42803;DHT22;28447;48.682;9.022;2023-03-31T09:18:40;12.80;99.90
42803;DHT22;28447;48.682;9.022;2023-03-31T09:24:26;13.10;99.90
42803;DHT22;28447;48.682;9.022;2023-03-31T09:29:14;13.20;99.90
42803;DHT22;28447;48.682;9.022;2023-03-31T09:31:44;12.90;99.90
42803;DHT22;28447;48.682;9.022;2023-03-31T09:34:27;12.50;99.90
42803;DHT22;28447;48.682;9.022;2023-03-31T09:36:53;12.50;99.90
42803;DHT22;28447;48.682;9.022;2023-03-31T09:39:19;12.50;99.90
42803;DHT22;28447;48.682;9.022;2023-03-31T09:41:47;12.70;99.90
42803;DHT22;28447;48.682;9.022;2023-03-31T09:44:43;12.80;99.90
42803;DHT22;28447;48.682;9.022;2023-03-31T09:50:04;13.00;99.90
42803;DHT22;28447;48.682;9.022;2023-03-31T09:52:31;13.00;99.90
42803;DHT22;28447;48.682;9.022;2023-03-31T09:55:00;12.80;99.90
42803;DHT22;28447;48.682;9.022;2023-03-31T09:57:28;13.00;99.90
42803;DHT22;28447;48.682;9.022;2023-03-31T10:00:02;13.30;99.90
42803;DHT22;28447;48.682;9.022;2023-03-31T10:02:36;13.30;99.90
42803;DHT22;28447;48.682;9.022;2023-03-31T10:05:04;13.50;99.90
42803;DHT22;28447;48.682;9.022;2023-03-31T10:07:33;13.40;99.90
42803;DHT22;28447;48.682;9.022;2023-03-31T10:10:01;13.00;99.90
42803;DHT22;28447;48.682;9.022;2023-03-31T10:12:29;13.50;99.90
42803;DHT22;28447;48.682;9.022;2023-03-31T10:15:26;13.20;99.90
42803;DHT22;28447;48.682;9.022;2023-03-31T10:17:52;14.40;99.90
42803;DHT22;28447;48.682;9.022;2023-03-31T10:20:31;14.50;99.90
42803;DHT22;28447;48.682;9.022;2023-03-31T10:23:05;14.40;99.90
42803;DHT22;28447;48.682;9.022;2023-03-31T10:25:41;14.30;99.90
42803;DHT22;28447;48.682;9.022;2023-03-31T10:28:12;14.60;99.90
42803;DHT22;28447;48.682;9.022;2023-03-31T10:30:46;14.20;99.90
42803;DHT22;28447;48.682;9.022;2023-03-31T10:33:16;14.20;99.90
42803;DHT22;28447;48.682;9.022;2023-03-31T10:35:43;14.50;99.90
42803;DHT22;28447;48.682;9.022;2023-03-31T10:38:16;15.10;99.90
42803;DHT22;28447;48.682;9.022;2023-03-31T10:40:52;14.80;99.90
42803;DHT22;28447;48.682;9.022;2023-03-31T10:44:03;14.60;99.90
42803;DHT22;28447;48.682;9.022;2023-03-31T10:46:11;14.70;99.90
42803;DHT22;28447;48.682;9.022;2023-03-31T10:48:39;14.60;99.90
42803;DHT22;28447;48.682;9.022;2023-03-31T10:54:00;15.20;99.90
42803;DHT22;28447;48.682;9.022;2023-03-31T10:56:41;14.90;99.90
42803;DHT22;28447;48.682;9.022;2023-03-31T11:04:41;14.70;99.90
42803;DHT22;28447;48.682;9.022;2023-03-31T11:58:54;10.60;99.90
42803;DHT22;28447;48.682;9.022;2023-03-31T12:29:50;15.00;99.90
42803;DHT22;28447;48.682;9.022;2023-03-31T12:32:21;14.90;99.90
42803;DHT22;28447;48.682;9.022;2023-03-31T12:34:55;14.80;99.90
42803;DHT22;28447;48.682;9.022;2023-03-31T12:37:59;13.60;99.90
42803;DHT22;28447;48.682;9.022;2023-03-31T12:52:07;13.80;99.90
42803;DHT22;28447;48.682;9.022;2023-03-31T12:57:34;15.40;99.90
42803;DHT22;28447;48.682;9.022;2023-03-31T13:00:22;17.00;99.90
42803;DHT22;28447;48.682;9.022;2023-03-31T13:02:49;16.30;99.90
42803;DHT22;28447;48.682;9.022;2023-03-31T13:08:07;14.70;99.90
42803;DHT22;28447;48.682;9.022;2023-03-31T13:10:55;13.50;99.90
42803;DHT22;28447;48.682;9.022;2023-03-31T13:13:22;12.90;99.90
42803;DHT22;28447;48.682;9.022;2023-03-31T13:15:56;12.20;99.90
42803;DHT22;28447;48.682;9.022;2023-03-31T13:18:22;12.40;99.90
42803;DHT22;28447;48.682;9.022;2023-03-31T13:20:59;12.00;99.90
42803;DHT22;28447;48.682;9.022;2023-03-31T13:23:26;11.70;99.90
42803;DHT22;28447;48.682;9.022;2023-03-31T13:30:58;10.30;99.90
42803;DHT22;28447;48.682;9.022;2023-03-31T13:39:16;9.20;99.90
42803;DHT22;28447;48.682;9.022;2023-03-31T13:54:48;7.60;99.90
42803;DHT22;28447;48.682;9.022;2023-03-31T14:10:44;10.90;99.90
42803;DHT22;28447;48.682;9.022;2023-03-31T14:18:13;11.90;99.90
42803;DHT22;28447;48.682;9.022;2023-03-31T14:20:49;12.40;99.90
42803;DHT22;28447;48.682;9.022;2023-03-31T14:23:39;12.30;99.90
42803;DHT22;28447;48.682;9.022;2023-03-31T14:37:38;13.70;99.90
42803;DHT22;28447;48.682;9.022;2023-03-31T14:40:04;13.10;99.90
42803;DHT22;28447;48.682;9.022;2023-03-31T14:42:40;13.20;99.90
42803;DHT22;28447;48.682;9.022;2023-03-31T14:48:25;14.10;99.90
42803;DHT22;28447;48.682;9.022;2023-03-31T14:50:49;14.10;99.90
42803;DHT22;28447;48.682;9.022;2023-03-31T14:53:18;14.60;99.90
42803;DHT22;28447;48.682;9.022;2023-03-31T14:55:47;14.60;99.90
42803;DHT22;28447;48.682;9.022;2023-03-31T14:58:22;12.30;99.90
42803;DHT22;28447;48.682;9.022;2023-03-31T15:00:49;15.00;99.90
42803;DHT22;28447;48.682;9.022;2023-03-31T15:03:18;12.60;99.90
42803;DHT22;28447;48.682;9.022;2023-03-31T15:05:44;13.60;99.90
42803;DHT22;28447;48.682;9.022;2023-03-31T15:08:16;13.20;99.90
42803;DHT22;28447;48.682;9.022;2023-03-31T15:10:51;11.70;99.90
42803;DHT22;28447;48.682;9.022;2023-03-31T15:13:22;11.60;99.90
42803;DHT22;28447;48.682;9.022;2023-03-31T15:15:50;11.40;99.90
42803;DHT22;28447;48.682;9.022;2023-03-31T15:20:43;11.40;99.90
42803;DHT22;28447;48.682;9.022;2023-03-31T15:23:20;11.60;99.90
42803;DHT22;28447;48.682;9.022;2023-03-31T15:25:57;11.40;99.90
42803;DHT22;28447;48.682;9.022;2023-03-31T15:28:26;11.50;99.90
42803;DHT22;28447;48.682;9.022;2023-03-31T15:30:54;11.50;99.90
42803;DHT22;28447;48.682;9.022;2023-03-31T15:33:32;11.40;99.90
42803;DHT22;28447;48.682;9.022;2023-03-31T15:35:59;11.60;99.90
42803;DHT22;28447;48.682;9.022;2023-03-31T15:38:27;11.50;99.90
42803;DHT22;28447;48.682;9.022;2023-03-31T15:40:57;11.60;99.90
42803;DHT22;28447;48.682;9.022;2023-03-31T15:43:32;11.40;99.90
42803;DHT22;28447;48.682;9.022;2023-03-31T15:46:10;11.30;99.90
42803;DHT22;28447;48.682;9.022;2023-03-31T15:48:56;11.40;99.90
42803;DHT22;28447;48.682;9.022;2023-03-31T15:51:40;11.50;99.90
42803;DHT22;28447;48.682;9.022;2023-03-31T15:54:30;11.40;99.90
42803;DHT22;28447;48.682;9.022;2023-03-31T15:56:59;11.30;99.90
42803;DHT22;28447;48.682;9.022;2023-03-31T15:59:27;11.10;99.90
42803;DHT22;28447;48.682;9.022;2023-03-31T16:01:54;11.10;99.90
42803;DHT22;28447;48.682;9.022;2023-03-31T16:04:22;11.00;99.90
42803;DHT22;28447;48.682;9.022;2023-03-31T16:09:52;10.90;99.90
42803;DHT22;28447;48.682;9.022;2023-03-31T16:12:48;10.80;99.90
42803;DHT22;28447;48.682;9.022;2023-03-31T16:15:29;10.80;99.90
42803;DHT22;28447;48.682;9.022;2023-03-31T16:17:59;10.80;99.90
42803;DHT22;28447;48.682;9.022;2023-03-31T16:20:36;10.60;99.90
42803;DHT22;28447;48.682;9.022;2023-03-31T16:25:39;9.90;99.90
42803;DHT22;28447;48.682;9.022;2023-03-31T16:33:14;9.50;99.90
42803;DHT22;28447;48.682;9.022;2023-03-31T16:48:22;8.80;99.90
42803;DHT22;28447;48.682;9.022;2023-03-31T16:53:22;8.80;99.90
42803;DHT22;28447;48.682;9.022;2023-03-31T16:55:48;8.80;99.90
42803;DHT22;28447;48.682;9.022;2023-03-31T16:58:15;8.70;99.90
42803;DHT22;28447;48.682;9.022;2023-03-31T17:00:42;9.00;99.90
42803;DHT22;28447;48.682;9.022;2023-03-31T17:03:09;9.30;99.90
42803;DHT22;28447;48.682;9.022;2023-03-31T17:05:40;9.10;99.90
42803;DHT22;28447;48.682;9.022;2023-03-31T17:08:07;9.00;99.90
42803;DHT22;28447;48.682;9.022;2023-03-31T17:10:34;8.90;99.90
42803;DHT22;28447;48.682;9.022;2023-03-31T17:13:00;8.80;99.90
42803;DHT22;28447;48.682;9.022;2023-03-31T17:15:26;8.80;99.90
42803;DHT22;28447;48.682;9.022;2023-03-31T17:17:55;8.70;99.90
42803;DHT22;28447;48.682;9.022;2023-03-31T17:20:21;8.70;99.90
42803;DHT22;28447;48.682;9.022;2023-03-31T17:22:47;8.50;99.90
42803;DHT22;28447;48.682;9.022;2023-03-31T17:25:13;8.50;99.90
42803;DHT22;28447;48.682;9.022;2023-03-31T17:27:40;8.60;99.90
42803;DHT22;28447;48.682;9.022;2023-03-31T17:30:07;8.50;99.90
42803;DHT22;28447;48.682;9.022;2023-03-31T17:32:35;8.40;99.90
42803;DHT22;28447;48.682;9.022;2023-03-31T17:35:01;8.40;99.90
42803;DHT22;28447;48.682;9.022;2023-03-31T17:37:28;8.60;99.90
42803;DHT22;28447;48.682;9.022;2023-03-31T17:39:55;8.60;99.90
42803;DHT22;28447;48.682;9.022;2023-03-31T17:42:23;8.70;99.90
42803;DHT22;28447;48.682;9.022;2023-03-31T17:44:49;8.60;99.90
42803;DHT22;28447;48.682;9.022;2023-03-31T17:47:17;8.60;99.90
42803;DHT22;28447;48.682;9.022;2023-03-31T17:49:43;8.60;99.90
42803;DHT22;28447;48.682;9.022;2023-03-31T17:52:09;8.50;99.90
42803;DHT22;28447;48.682;9.022;2023-03-31T17:54:35;8.50;99.90
42803;DHT22;28447;48.682;9.022;2023-03-31T17:57:01;8.40;99.90
42803;DHT22;28447;48.682;9.022;2023-03-31T17:59:27;8.50;99.90
42803;DHT22;28447;48.682;9.022;2023-03-31T18:01:53;8.40;99.90
42803;DHT22;28447;48.682;9.022;2023-03-31T18:04:20;8.50;99.90
42803;DHT22;28447;48.682;9.022;2023-03-31T18:06:46;8.50;99.90
42803;DHT22;28447;48.682;9.022;2023-03-31T18:09:13;8.50;99.90
42803;DHT22;28447;48.682;9.022;2023-03-31T18:11:39;8.50;99.90
42803;DHT22;28447;48.682;9.022;2023-03-31T18:14:05;8.60;99.90
42803;DHT22;28447;48.682;9.022;2023-03-31T18:16:32;8.60;99.90
42803;DHT22;28447;48.682;9.022;2023-03-31T18:18:59;8.60;99.90
42803;DHT22;28447;48.682;9.022;2023-03-31T18:21:26;8.60;99.90
42803;DHT22;28447;48.682;9.022;2023-03-31T18:23:52;8.70;99.90
42803;DHT22;28447;48.682;9.022;2023-03-31T18:26:21;8.70;99.90
42803;DHT22;28447;48.682;9.022;2023-03-31T18:28:48;8.70;99.90
42803;DHT22;28447;48.682;9.022;2023-03-31T18:31:15;8.70;99.90
42803;DHT22;28447;48.682;9.022;2023-03-31T18:33:41;8.70;99.90
42803;DHT22;28447;48.682;9.022;2023-03-31T18:36:12;8.60;99.90
42803;DHT22;28447;48.682;9.022;2023-03-31T18:38:40;8.60;99.90
42803;DHT22;28447;48.682;9.022;2023-03-31T18:41:08;8.60;99.90
42803;DHT22;28447;48.682;9.022;2023-03-31T18:43:34;8.60;99.90
42803;DHT22;28447;48.682;9.022;2023-03-31T18:46:00;8.60;99.90
42803;DHT22;28447;48.682;9.022;2023-03-31T18:50:53;8.50;99.90
42803;DHT22;28447;48.682;9.022;2023-03-31T18:55:50;8.50;99.90
42803;DHT22;28447;48.682;9.022;2023-03-31T19:03:09;8.50;99.90
42803;DHT22;28447;48.682;9.022;2023-03-31T19:05:35;8.50;99.90
42803;DHT22;28447;48.682;9.022;2023-03-31T19:08:01;8.50;99.90
42803;DHT22;28447;48.682;9.022;2023-03-31T19:10:27;8.50;99.90
42803;DHT22;28447;48.682;9.022;2023-03-31T19:12:53;8.50;99.90
42803;DHT22;28447;48.682;9.022;2023-03-31T19:15:20;8.50;99.90
42803;DHT22;28447;48.682;9.022;2023-03-31T19:17:47;8.50;99.90
42803;DHT22;28447;48.682;9.022;2023-03-31T19:20:13;8.50;99.90
42803;DHT22;28447;48.682;9.022;2023-03-31T19:22:43;8.50;99.90
42803;DHT22;28447;48.682;9.022;2023-03-31T19:25:10;8.40;99.90
42803;DHT22;28447;48.682;9.022;2023-03-31T19:27:36;8.50;99.90
42803;DHT22;28447;48.682;9.022;2023-03-31T19:30:03;8.50;99.90
42803;DHT22;28447;48.682;9.022;2023-03-31T19:32:29;8.50;99.90
42803;DHT22;28447;48.682;9.022;2023-03-31T19:34:54;8.50;99.90
42803;DHT22;28447;48.682;9.022;2023-03-31T19:39:47;8.50;99.90
42803;DHT22;28447;48.682;9.022;2023-03-31T19:42:13;8.60;99.90
42803;DHT22;28447;48.682;9.022;2023-03-31T19:47:10;9.00;99.90
42803;DHT22;28447;48.682;9.022;2023-03-31T19:49:37;8.50;99.90
42803;DHT22;28447;48.682;9.022;2023-03-31T19:52:03;8.40;99.90
42803;DHT22;28447;48.682;9.022;2023-03-31T19:54:29;8.50;99.90
42803;DHT22;28447;48.682;9.022;2023-03-31T19:56:56;8.50;99.90
42803;DHT22;28447;48.682;9.022;2023-03-31T20:01:50;8.60;99.90
42803;DHT22;28447;48.682;9.022;2023-03-31T20:04:15;8.70;99.90
42803;DHT22;28447;48.682;9.022;2023-03-31T20:06:42;8.60;99.90
42803;DHT22;28447;48.682;9.022;2023-03-31T20:09:15;8.70;99.90
42803;DHT22;28447;48.682;9.022;2023-03-31T20:11:44;8.60;99.90
42803;DHT22;28447;48.682;9.022;2023-03-31T20:14:10;8.60;99.90
42803;DHT22;28447;48.682;9.022;2023-03-31T20:16:36;8.70;99.90
42803;DHT22;28447;48.682;9.022;2023-03-31T20:19:03;8.60;99.90
42803;DHT22;28447;48.682;9.022;2023-03-31T20:21:33;8.50;99.90
42803;DHT22;28447;48.682;9.022;2023-03-31T20:23:59;8.50;99.90
42803;DHT22;28447;48.682;9.022;2023-03-31T20:26:27;8.50;99.90
42803;DHT22;28447;48.682;9.022;2023-03-31T20:28:58;8.40;99.90
42803;DHT22;28447;48.682;9.022;2023-03-31T20:31:28;8.30;99.90
42803;DHT22;28447;48.682;9.022;2023-03-31T20:38:54;8.40;99.90
42803;DHT22;28447;48.682;9.022;2023-03-31T20:41:26;8.40;99.90
42803;DHT22;28447;48.682;9.022;2023-03-31T20:43:53;8.40;99.90
42803;DHT22;28447;48.682;9.022;2023-03-31T20:46:18;8.40;99.90
42803;DHT22;28447;48.682;9.022;2023-03-31T20:48:49;8.40;99.90
42803;DHT22;28447;48.682;9.022;2023-03-31T20:51:18;8.40;99.90
42803;DHT22;28447;48.682;9.022;2023-03-31T20:53:49;8.40;99.90
42803;DHT22;28447;48.682;9.022;2023-03-31T20:56:24;8.40;99.90
42803;DHT22;28447;48.682;9.022;2023-03-31T20:58:50;8.40;99.90
42803;DHT22;28447;48.682;9.022;2023-03-31T21:01:19;8.40;99.90
42803;DHT22;28447;48.682;9.022;2023-03-31T21:03:45;8.40;99.90
42803;DHT22;28447;48.682;9.022;2023-03-31T21:06:12;8.40;99.90
42803;DHT22;28447;48.682;9.022;2023-03-31T21:08:41;8.50;99.90
42803;DHT22;28447;48.682;9.022;2023-03-31T21:11:09;8.40;99.90
42803;DHT22;28447;48.682;9.022;2023-03-31T21:13:36;8.40;99.90
42803;DHT22;28447;48.682;9.022;2023-03-31T21:16:02;8.30;99.90
42803;DHT22;28447;48.682;9.022;2023-03-31T21:18:30;8.30;99.90
42803;DHT22;28447;48.682;9.022;2023-03-31T21:21:03;8.30;99.90
42803;DHT22;28447;48.682;9.022;2023-03-31T21:23:45;8.30;99.90
42803;DHT22;28447;48.682;9.022;2023-03-31T21:26:13;8.30;99.90
42803;DHT22;28447;48.682;9.022;2023-03-31T21:28:40;8.30;99.90
42803;DHT22;28447;48.682;9.022;2023-03-31T21:31:14;8.30;99.90
42803;DHT22;28447;48.682;9.022;2023-03-31T21:33:42;8.20;99.90
42803;DHT22;28447;48.682;9.022;2023-03-31T21:36:11;8.30;99.90
42803;DHT22;28447;48.682;9.022;2023-03-31T21:38:38;8.30;99.90
42803;DHT22;28447;48.682;9.022;2023-03-31T21:41:09;8.30;99.90
42803;DHT22;28447;48.682;9.022;2023-03-31T21:43:35;8.30;99.90
42803;DHT22;28447;48.682;9.022;2023-03-31T21:46:08;8.30;99.90
42803;DHT22;28447;48.682;9.022;2023-03-31T21:48:34;8.30;99.90
42803;DHT22;28447;48.682;9.022;2023-03-31T21:51:00;8.20;99.90
42803;DHT22;28447;48.682;9.022;2023-03-31T21:53:28;8.20;99.90
42803;DHT22;28447;48.682;9.022;2023-03-31T21:55:55;8.10;99.90
42803;DHT22;28447;48.682;9.022;2023-03-31T21:58:22;8.00;99.90
